createdAt,value
2022-10-05T00:01:35.394Z,31.90
2022-10-05T00:04:16.012Z,31.50
2022-10-05T00:06:51.171Z,31.50
2022-10-05T00:09:23.375Z,30.90
2022-10-05T00:11:55.051Z,31.70
2022-10-05T00:14:34.241Z,31.80
2022-10-05T00:17:07.403Z,29.80
2022-10-05T00:19:39.896Z,27.50
2022-10-05T00:22:15.243Z,26.80
2022-10-05T00:24:47.619Z,26.60
2022-10-05T00:27:21.427Z,26.70
2022-10-05T00:29:59.374Z,28.70
2022-10-05T00:32:32.311Z,30.90
2022-10-05T00:35:03.870Z,30.70
2022-10-05T00:37:35.408Z,30.70
2022-10-05T00:40:20.485Z,32.20
2022-10-05T00:43:00.849Z,29.80
2022-10-05T00:45:38.773Z,30.00
2022-10-05T00:48:20.527Z,31.20
2022-10-05T00:51:17.273Z,29.20
2022-10-05T00:54:03.275Z,29.70
2022-10-05T00:56:57.575Z,30.70
2022-10-05T01:02:11.782Z,30.70
2022-10-05T01:04:50.547Z,30.00
2022-10-05T01:07:33.904Z,30.00
2022-10-05T01:10:16.085Z,27.00
2022-10-05T01:12:55.737Z,25.90
2022-10-05T01:15:32.615Z,26.70
2022-10-05T01:18:13.581Z,25.30
2022-10-05T01:20:57.453Z,24.70
2022-10-05T01:24:18.332Z,24.90
2022-10-05T01:27:09.760Z,29.40
2022-10-05T01:29:46.762Z,28.40
2022-10-05T01:32:26.012Z,30.20
2022-10-05T01:35:10.534Z,29.90
2022-10-05T01:37:54.488Z,29.30
2022-10-05T01:43:13.065Z,29.00
2022-10-05T01:45:54.873Z,31.10
2022-10-05T01:48:42.782Z,27.90
2022-10-05T01:51:28.876Z,28.10
2022-10-05T01:54:08.315Z,27.70
2022-10-05T01:56:45.912Z,29.50
2022-10-05T01:59:28.419Z,28.80
2022-10-05T02:02:04.820Z,25.30
2022-10-05T02:05:01.511Z,26.50
2022-10-05T02:07:38.307Z,24.80
2022-10-05T02:10:19.079Z,23.20
2022-10-05T02:12:54.506Z,23.70
2022-10-05T02:15:30.529Z,22.50
2022-10-05T02:18:11.145Z,26.80
2022-10-05T02:20:44.897Z,26.90
2022-10-05T02:23:20.500Z,27.00
2022-10-05T02:25:55.684Z,25.50
2022-10-05T02:28:33.142Z,23.90
2022-10-05T02:31:10.805Z,24.30
2022-10-05T02:33:42.471Z,23.40
2022-10-05T02:36:17.688Z,23.40
2022-10-05T02:38:59.605Z,22.80
2022-10-05T02:41:44.077Z,22.00
2022-10-05T02:44:26.912Z,23.40
2022-10-05T02:47:08.275Z,20.90
2022-10-05T02:49:46.191Z,19.10
2022-10-05T02:52:24.284Z,18.10
2022-10-05T02:55:04.647Z,18.20
2022-10-05T02:57:40.394Z,18.10
2022-10-05T03:00:17.236Z,18.90
2022-10-05T03:02:56.812Z,17.60
2022-10-05T03:05:32.790Z,21.20
2022-10-05T03:08:09.242Z,23.90
2022-10-05T03:10:48.669Z,23.10
2022-10-05T03:13:27.804Z,22.80
2022-10-05T03:16:12.513Z,23.00
2022-10-05T03:18:58.357Z,23.60
2022-10-05T03:21:53.566Z,23.30
2022-10-05T03:24:41.510Z,25.30
2022-10-05T03:27:27.094Z,23.70
2022-10-05T03:30:04.373Z,24.10
2022-10-05T03:32:49.924Z,25.40
2022-10-05T03:35:29.403Z,25.70
2022-10-05T03:38:10.715Z,28.70
2022-10-05T03:40:46.546Z,23.90
2022-10-05T03:43:47.790Z,23.50
2022-10-05T03:46:26.728Z,23.00
2022-10-05T03:49:07.180Z,22.50
2022-10-05T03:51:44.161Z,22.50
2022-10-05T03:54:22.418Z,25.30
2022-10-05T03:56:56.983Z,24.10
2022-10-05T03:59:36.526Z,24.40
2022-10-05T04:02:14.403Z,23.40
2022-10-05T04:04:51.878Z,20.00
2022-10-05T04:07:36.689Z,20.30
2022-10-05T04:10:17.651Z,20.40
2022-10-05T04:12:55.266Z,21.90
2022-10-05T04:15:33.825Z,22.30
2022-10-05T04:18:07.289Z,26.70
2022-10-05T04:20:45.893Z,21.00
2022-10-05T04:23:25.435Z,18.50
2022-10-05T04:26:03.557Z,18.50
2022-10-05T04:28:45.911Z,17.60
2022-10-05T04:31:27.003Z,17.30
2022-10-05T04:34:10.665Z,16.80
2022-10-05T04:36:50.197Z,16.40
2022-10-05T04:39:34.263Z,21.70
2022-10-05T04:42:13.461Z,23.60
2022-10-05T04:45:08.808Z,23.00
2022-10-05T04:48:05.040Z,20.20
2022-10-05T04:50:48.694Z,18.70
2022-10-05T04:53:28.521Z,18.30
2022-10-05T04:56:04.384Z,20.00
2022-10-05T04:58:46.658Z,19.80
2022-10-05T05:01:36.145Z,18.10
2022-10-05T05:04:23.375Z,19.50
2022-10-05T05:07:04.870Z,17.90
2022-10-05T05:10:07.953Z,16.60
2022-10-05T05:12:52.327Z,17.50
2022-10-05T05:15:36.549Z,18.40
2022-10-05T05:18:28.797Z,18.10
2022-10-05T05:21:09.769Z,18.10
2022-10-05T05:23:45.716Z,19.90
2022-10-05T05:26:25.156Z,20.20
2022-10-05T05:29:06.654Z,20.80
2022-10-05T05:31:44.908Z,20.90
2022-10-05T05:34:34.992Z,20.00
2022-10-05T05:37:13.602Z,21.70
2022-10-05T05:39:54.644Z,20.90
2022-10-05T05:42:37.062Z,22.70
2022-10-05T05:45:17.631Z,20.90
2022-10-05T05:47:54.434Z,17.70
2022-10-05T05:50:42.589Z,20.90
2022-10-05T05:53:20.022Z,22.30
2022-10-05T05:55:56.399Z,23.40
2022-10-05T05:58:32.979Z,22.00
2022-10-05T06:01:25.111Z,23.20
2022-10-05T06:04:07.628Z,26.10
2022-10-05T06:06:46.960Z,26.30
2022-10-05T06:09:22.202Z,28.30
2022-10-05T06:11:58.249Z,28.20
2022-10-05T06:14:36.279Z,25.60
2022-10-05T06:17:13.338Z,26.10
2022-10-05T06:19:47.066Z,25.80
2022-10-05T06:25:05.416Z,23.30
2022-10-05T06:27:59.261Z,27.10
2022-10-05T06:30:42.217Z,24.20
2022-10-05T06:33:24.730Z,22.60
2022-10-05T06:36:08.267Z,21.90
2022-10-05T06:38:55.283Z,20.40
2022-10-05T06:41:35.746Z,18.60
2022-10-05T06:44:10.909Z,23.80
2022-10-05T06:46:55.336Z,22.30
2022-10-05T06:49:31.571Z,20.60
2022-10-05T06:52:11.953Z,19.20
2022-10-05T06:54:56.551Z,18.60
2022-10-05T06:57:44.162Z,16.20
2022-10-05T07:00:21.290Z,14.70
2022-10-05T07:02:59.447Z,13.60
2022-10-05T07:05:53.849Z,13.20
2022-10-05T07:08:39.221Z,13.80
2022-10-05T07:11:24.317Z,13.70
2022-10-05T07:14:14.623Z,13.40
2022-10-05T07:17:02.729Z,13.90
2022-10-05T07:19:43.091Z,13.00
2022-10-05T07:22:55.513Z,13.70
2022-10-05T07:25:36.901Z,11.20
2022-10-05T07:28:14.667Z,11.00
2022-10-05T07:30:55.946Z,8.80
2022-10-05T07:33:35.430Z,9.10
2022-10-05T07:36:33.030Z,8.80
2022-10-05T07:39:11.875Z,7.40
2022-10-05T07:41:47.982Z,8.20
2022-10-05T07:44:27.921Z,6.90
2022-10-05T07:47:06.417Z,6.30
2022-10-05T07:49:47.018Z,5.40
2022-10-05T07:52:24.852Z,5.50
2022-10-05T07:55:06.496Z,5.30
2022-10-05T07:57:48.728Z,5.50
2022-10-05T08:00:23.250Z,4.90
2022-10-05T08:02:59.134Z,3.90
2022-10-05T08:05:32.811Z,3.90
2022-10-05T08:08:19.642Z,3.50
2022-10-05T08:10:58.210Z,3.70
2022-10-05T08:13:36.034Z,3.70
2022-10-05T08:16:13.619Z,3.90
2022-10-05T08:18:56.038Z,3.70
2022-10-05T08:21:37.322Z,3.50
2022-10-05T08:24:19.321Z,3.30
2022-10-05T08:26:59.892Z,3.90
2022-10-05T08:29:39.016Z,3.60
2022-10-05T08:32:19.989Z,3.20
2022-10-05T08:34:56.960Z,3.90
2022-10-05T08:37:32.333Z,3.30
2022-10-05T08:40:32.370Z,3.10
2022-10-05T08:43:22.933Z,3.60
2022-10-05T08:46:36.788Z,2.60
2022-10-05T08:49:34.913Z,3.10
2022-10-05T08:52:30.381Z,3.10
2022-10-05T08:55:38.988Z,3.10
2022-10-05T08:58:33.299Z,3.20
2022-10-05T09:01:13.178Z,3.60
2022-10-05T09:04:01.491Z,3.40
2022-10-05T09:06:53.911Z,3.60
2022-10-05T09:09:47.908Z,3.90
2022-10-05T09:12:38.098Z,3.80
2022-10-05T09:15:35.093Z,3.70
2022-10-05T09:18:29.350Z,4.30
2022-10-05T09:23:42.982Z,4.70
2022-10-05T09:26:44.247Z,4.00
2022-10-05T09:29:40.370Z,3.70
2022-10-05T09:32:36.805Z,3.80
2022-10-05T09:35:22.912Z,3.70
2022-10-05T09:38:16.378Z,4.00
2022-10-05T09:41:20.901Z,3.90
2022-10-05T09:44:33.826Z,3.90
2022-10-05T09:47:38.939Z,3.40
2022-10-05T09:50:47.788Z,4.00
2022-10-05T09:53:45.569Z,3.70
2022-10-05T09:56:49.097Z,3.20
2022-10-05T10:03:21.359Z,2.90
2022-10-05T10:06:17.613Z,2.30
2022-10-05T10:09:10.053Z,2.90
2022-10-05T10:12:02.602Z,2.60
2022-10-05T10:15:11.112Z,2.90
2022-10-05T10:18:10.120Z,2.30
2022-10-05T10:21:00.617Z,2.20
2022-10-05T10:23:47.941Z,2.10
2022-10-05T10:29:47.001Z,2.30
2022-10-05T10:32:37.866Z,3.80
2022-10-05T10:35:31.649Z,2.10
2022-10-05T10:38:35.056Z,2.50
2022-10-05T10:41:48.284Z,2.10
2022-10-05T10:45:00.186Z,1.90
2022-10-05T10:47:56.203Z,2.50
2022-10-05T10:50:50.617Z,2.50
2022-10-05T10:53:39.258Z,2.10
2022-10-05T10:56:29.444Z,1.80
2022-10-05T10:59:36.131Z,2.20
2022-10-05T11:02:37.278Z,2.10
2022-10-05T11:05:39.046Z,2.20
2022-10-05T11:08:38.337Z,2.30
2022-10-05T11:11:31.053Z,2.50
2022-10-05T11:14:29.137Z,2.70
2022-10-05T11:17:24.371Z,2.50
2022-10-05T11:20:09.442Z,2.30
2022-10-05T11:23:10.045Z,2.40
2022-10-05T11:26:02.745Z,2.80
2022-10-05T11:29:11.583Z,2.70
2022-10-05T11:32:08.928Z,2.50
2022-10-05T11:35:03.424Z,2.90
2022-10-05T11:37:58.420Z,3.20
2022-10-05T11:40:57.105Z,3.70
2022-10-05T11:44:06.114Z,2.90
2022-10-05T11:46:49.354Z,3.40
2022-10-05T11:49:34.235Z,3.60
2022-10-05T11:52:19.411Z,3.40
2022-10-05T11:55:16.213Z,3.60
2022-10-05T11:57:54.397Z,3.00
2022-10-05T12:00:31.874Z,3.50
2022-10-05T12:03:29.300Z,3.70
2022-10-05T12:06:26.380Z,3.70
2022-10-05T12:09:15.262Z,3.90
2022-10-05T12:11:59.093Z,4.00
2022-10-05T12:17:15.822Z,3.40
2022-10-05T12:19:55.766Z,3.00
2022-10-05T12:22:32.970Z,2.90
2022-10-05T12:25:17.562Z,2.90
2022-10-05T12:27:53.367Z,2.90
2022-10-05T12:30:33.872Z,2.70
2022-10-05T12:33:13.895Z,3.00
2022-10-05T12:35:51.999Z,2.80
2022-10-05T12:38:29.492Z,2.50
2022-10-05T12:41:08.725Z,3.20
2022-10-05T12:43:53.935Z,2.60
2022-10-05T12:46:33.018Z,2.50
2022-10-05T12:49:29.574Z,2.60
2022-10-05T12:52:03.262Z,2.70
2022-10-05T12:54:48.143Z,2.50
2022-10-05T12:57:28.608Z,2.70
2022-10-05T13:00:04.580Z,2.70
2022-10-05T13:02:43.311Z,3.00
2022-10-05T13:05:34.800Z,2.80
2022-10-05T13:08:19.181Z,2.70
2022-10-05T13:10:54.290Z,2.60
2022-10-05T13:13:38.753Z,3.60
2022-10-05T13:16:20.771Z,3.00
2022-10-05T13:19:05.222Z,2.70
2022-10-05T13:21:58.064Z,2.60
2022-10-05T13:24:32.713Z,2.80
2022-10-05T13:27:11.534Z,2.60
2022-10-05T13:29:52.278Z,2.90
2022-10-05T13:32:30.595Z,3.20
2022-10-05T13:35:17.856Z,2.80
2022-10-05T13:37:59.950Z,3.20
2022-10-05T13:40:38.643Z,3.10
2022-10-05T13:43:20.266Z,2.70
2022-10-05T13:45:57.097Z,3.40
2022-10-05T13:48:49.885Z,2.50
2022-10-05T13:51:24.806Z,2.70
2022-10-05T13:54:05.921Z,2.80
2022-10-05T13:56:43.992Z,2.90
2022-10-05T13:59:24.770Z,3.10
2022-10-05T14:02:02.713Z,3.20
2022-10-05T14:04:47.970Z,3.00
2022-10-05T14:07:31.469Z,2.90
2022-10-05T14:10:05.201Z,3.10
2022-10-05T14:12:44.517Z,3.40
2022-10-05T14:15:23.839Z,2.90
2022-10-05T14:17:55.601Z,3.20
2022-10-05T14:20:31.166Z,3.50
2022-10-05T14:23:07.166Z,3.70
2022-10-05T14:25:54.167Z,3.40
2022-10-05T14:28:29.698Z,3.60
2022-10-05T14:31:04.621Z,3.20
2022-10-05T14:33:38.405Z,3.90
2022-10-05T14:36:17.263Z,3.60
2022-10-05T14:38:57.935Z,3.50
2022-10-05T14:41:35.819Z,3.20
2022-10-05T14:44:30.001Z,4.10
2022-10-05T14:47:18.968Z,3.20
2022-10-05T14:50:14.178Z,3.30
2022-10-05T14:53:00.850Z,3.10
2022-10-05T14:55:48.261Z,4.10
2022-10-05T14:58:35.320Z,3.60
2022-10-05T15:01:15.640Z,3.10
2022-10-05T15:03:59.844Z,2.60
2022-10-05T15:06:38.721Z,3.60
2022-10-05T15:09:40.730Z,3.50
2022-10-05T15:12:19.441Z,3.10
2022-10-05T15:14:53.767Z,3.40
2022-10-05T15:17:32.137Z,3.50
2022-10-05T15:20:09.782Z,3.60
2022-10-05T15:22:50.238Z,3.60
2022-10-05T15:25:28.143Z,3.70
2022-10-05T15:28:13.268Z,3.40
2022-10-05T15:30:53.665Z,3.10
2022-10-05T15:33:34.290Z,2.90
2022-10-05T15:36:12.699Z,2.80
2022-10-05T15:39:00.190Z,2.80
2022-10-05T15:41:50.707Z,3.00
2022-10-05T15:44:34.338Z,2.90
2022-10-05T15:47:10.442Z,3.10
2022-10-05T15:49:57.359Z,3.30
2022-10-05T15:52:37.252Z,3.30
2022-10-05T15:55:36.478Z,11.70
2022-10-05T15:58:31.665Z,4.50
2022-10-05T16:01:11.689Z,3.80
2022-10-05T16:03:50.522Z,3.00
2022-10-05T16:06:57.177Z,3.50
2022-10-05T16:09:43.730Z,3.20
2022-10-05T16:12:27.468Z,3.80
2022-10-05T16:15:16.945Z,3.70
2022-10-05T16:18:01.839Z,3.40
2022-10-05T16:20:46.490Z,3.70
2022-10-05T16:23:28.386Z,4.00
2022-10-05T16:26:14.739Z,4.40
2022-10-05T16:29:00.879Z,4.20
2022-10-05T16:31:40.529Z,4.40
2022-10-05T16:34:26.210Z,4.40
2022-10-05T16:37:09.447Z,5.40
2022-10-05T16:39:51.419Z,5.30
2022-10-05T16:42:42.052Z,4.60
2022-10-05T16:45:28.660Z,4.90
2022-10-05T16:48:09.618Z,6.30
2022-10-05T16:50:54.284Z,9.30
2022-10-05T16:53:31.828Z,6.60
2022-10-05T16:56:07.425Z,6.00
2022-10-05T16:58:52.288Z,5.60
2022-10-05T17:01:39.874Z,5.40
2022-10-05T17:04:34.805Z,5.50
2022-10-05T17:07:35.211Z,5.80
2022-10-05T17:10:26.899Z,5.90
2022-10-05T17:13:07.335Z,6.30
2022-10-05T17:15:54.340Z,6.00
2022-10-05T17:18:51.405Z,6.10
2022-10-05T17:21:31.140Z,11.30
2022-10-05T17:24:21.740Z,7.40
2022-10-05T17:27:21.774Z,9.10
2022-10-05T17:29:55.910Z,7.90
2022-10-05T17:32:40.190Z,7.40
2022-10-05T17:35:50.942Z,9.50
2022-10-05T17:38:25.432Z,8.30
2022-10-05T17:41:19.653Z,6.80
2022-10-05T17:44:20.155Z,6.80
2022-10-05T17:46:55.019Z,7.90
2022-10-05T17:50:08.938Z,8.80
2022-10-05T17:53:02.269Z,8.40
2022-10-05T17:55:44.196Z,7.50
2022-10-05T17:59:00.823Z,7.50
2022-10-05T18:01:38.460Z,6.60
2022-10-05T18:04:30.564Z,7.10
2022-10-05T18:07:16.227Z,6.60
2022-10-05T18:09:57.391Z,6.50
2022-10-05T18:12:45.975Z,6.40
2022-10-05T18:15:46.090Z,7.80
2022-10-05T18:18:38.753Z,7.70
2022-10-05T18:21:24.525Z,7.60
2022-10-05T18:24:18.712Z,7.20
2022-10-05T18:27:00.292Z,8.10
2022-10-05T18:30:05.744Z,7.50
2022-10-05T18:32:59.002Z,8.20
2022-10-05T18:35:38.178Z,7.90
2022-10-05T18:38:25.438Z,9.00
2022-10-05T18:41:03.375Z,8.30
2022-10-05T18:43:41.062Z,8.10
2022-10-05T18:46:27.433Z,9.00
2022-10-05T18:49:11.974Z,8.80
2022-10-05T18:51:52.499Z,8.70
2022-10-05T18:54:38.492Z,8.60
2022-10-05T18:57:40.864Z,9.20
2022-10-05T19:00:19.902Z,10.20
2022-10-05T19:02:57.235Z,9.90
2022-10-05T19:05:48.664Z,9.90
2022-10-05T19:08:32.950Z,10.60
2022-10-05T19:11:16.088Z,12.50
2022-10-05T19:13:58.297Z,10.80
2022-10-05T19:16:55.716Z,11.40
2022-10-05T19:19:45.219Z,10.00
2022-10-05T19:22:27.435Z,10.00
2022-10-05T19:25:17.520Z,9.60
2022-10-05T19:28:00.611Z,10.30
2022-10-05T19:30:45.491Z,9.70
2022-10-05T19:33:32.426Z,8.30
2022-10-05T19:36:25.902Z,9.40
2022-10-05T19:39:07.934Z,9.40
2022-10-05T19:41:54.388Z,9.40
2022-10-05T19:44:39.687Z,9.00
2022-10-05T19:47:25.068Z,8.80
2022-10-05T19:50:07.588Z,9.50
2022-10-05T19:52:49.837Z,9.10
2022-10-05T19:55:32.918Z,9.60
2022-10-05T19:58:17.478Z,8.60
2022-10-05T20:00:56.204Z,8.50
2022-10-05T20:03:29.907Z,8.40
2022-10-05T20:08:42.125Z,8.40
2022-10-05T20:11:15.605Z,8.50
2022-10-05T20:13:49.238Z,8.20
2022-10-05T20:16:49.982Z,8.30
2022-10-05T20:19:55.520Z,7.70
2022-10-05T20:22:30.825Z,7.30
2022-10-05T20:25:03.768Z,8.10
2022-10-05T20:27:56.057Z,8.50
2022-10-05T20:30:31.554Z,7.20
2022-10-05T20:33:04.745Z,7.30
2022-10-05T20:35:36.289Z,7.80
2022-10-05T20:38:07.700Z,7.60
2022-10-05T20:40:40.038Z,8.00
2022-10-05T20:43:11.669Z,7.50
2022-10-05T20:45:44.381Z,8.30
2022-10-05T20:48:17.558Z,8.70
2022-10-05T20:50:49.080Z,7.70
2022-10-05T20:53:20.559Z,7.70
2022-10-05T20:55:52.010Z,7.20
2022-10-05T20:58:24.051Z,7.30
2022-10-05T21:01:13.293Z,6.90
2022-10-05T21:03:44.897Z,7.90
2022-10-05T21:06:18.023Z,7.50
2022-10-05T21:08:51.595Z,7.30
2022-10-05T21:11:23.365Z,7.60
2022-10-05T21:13:55.218Z,7.80
2022-10-05T21:16:27.107Z,6.30
2022-10-05T21:18:58.637Z,6.50
2022-10-05T21:21:30.088Z,7.20
2022-10-05T21:24:01.568Z,7.40
2022-10-05T21:26:34.325Z,8.20
2022-10-05T21:29:11.550Z,8.30
2022-10-05T21:31:44.269Z,8.00
2022-10-05T21:34:15.956Z,7.40
2022-10-05T21:36:47.536Z,6.70
2022-10-05T21:39:19.377Z,6.50
2022-10-05T21:41:51.154Z,7.10
2022-10-05T21:44:22.806Z,6.90
2022-10-05T21:46:54.443Z,6.60
2022-10-05T21:49:26.807Z,6.90
2022-10-05T21:51:59.926Z,5.80
2022-10-05T21:54:33.829Z,6.20
2022-10-05T21:57:05.690Z,6.00
2022-10-05T21:59:37.664Z,6.60
2022-10-05T22:02:09.561Z,5.90
2022-10-05T22:04:41.278Z,5.80
2022-10-05T22:07:20.514Z,5.60
2022-10-05T22:09:52.693Z,6.20
2022-10-05T22:12:24.649Z,6.60
2022-10-05T22:14:56.203Z,6.00
2022-10-05T22:17:31.251Z,6.10
2022-10-05T22:20:03.780Z,7.40
2022-10-05T22:22:35.217Z,8.70
2022-10-05T22:25:07.765Z,6.80
2022-10-05T22:27:39.659Z,6.10
2022-10-05T22:30:15.077Z,5.70
2022-10-05T22:32:46.930Z,6.90
2022-10-05T22:35:18.689Z,6.60
2022-10-05T22:37:50.142Z,5.00
2022-10-05T22:40:21.836Z,5.70
2022-10-05T22:42:54.253Z,6.00
2022-10-05T22:45:30.355Z,7.70
2022-10-05T22:48:03.924Z,6.10
2022-10-05T22:50:35.399Z,6.30
2022-10-05T22:53:07.149Z,5.70
2022-10-05T22:55:38.704Z,6.40
2022-10-05T22:58:10.181Z,7.20
2022-10-05T23:00:57.465Z,7.60
2022-10-05T23:03:29.423Z,8.30
2022-10-05T23:06:03.512Z,7.70
2022-10-05T23:08:36.493Z,10.70
2022-10-05T23:11:09.638Z,8.10
2022-10-05T23:13:41.602Z,7.50
2022-10-05T23:16:15.519Z,7.30
2022-10-05T23:18:48.706Z,7.10
2022-10-05T23:21:21.286Z,7.60
2022-10-05T23:23:52.702Z,6.80
2022-10-05T23:26:26.063Z,6.60
2022-10-05T23:28:57.928Z,5.80
2022-10-05T23:31:33.633Z,6.30
2022-10-05T23:34:05.090Z,6.00
2022-10-05T23:36:36.510Z,6.20
2022-10-05T23:39:07.961Z,5.80
2022-10-05T23:41:39.562Z,5.60
2022-10-05T23:44:11.111Z,6.30
2022-10-05T23:46:42.557Z,6.40
2022-10-05T23:49:14.941Z,6.20
2022-10-05T23:51:46.315Z,6.00
2022-10-05T23:54:17.744Z,6.30
2022-10-05T23:56:49.141Z,5.70
2022-10-05T23:59:20.581Z,5.10
